createdAt,value
2023-03-28T00:00:25.873Z,99445.69
2023-03-28T00:03:29.722Z,99447.38
2023-03-28T00:06:32.927Z,99419.84
2023-03-28T00:09:35.163Z,99437.13
2023-03-28T00:12:37.865Z,99468.25
2023-03-28T00:15:41.277Z,99468.34
2023-03-28T00:18:44.081Z,99438.97
2023-03-28T00:21:49.043Z,99445.91
2023-03-28T00:24:54.408Z,99459.75
2023-03-28T00:27:56.613Z,99476.91
2023-03-28T00:31:07.405Z,99438.97
2023-03-28T00:34:09.643Z,99477.81
2023-03-28T00:37:17.253Z,99458.88
2023-03-28T00:40:19.192Z,99487.38
2023-03-28T00:43:39.379Z,99478.84
2023-03-28T00:46:42.407Z,99475.41
2023-03-28T00:49:49.698Z,99497.16
2023-03-28T00:53:10.321Z,99495.28
2023-03-28T00:56:16.663Z,99484.22
2023-03-28T00:59:21.454Z,99515.25
2023-03-28T01:02:24.543Z,99496.22
2023-03-28T01:05:31.316Z,99492.06
2023-03-28T01:08:38.535Z,99488.59
2023-03-28T01:11:44.544Z,99504.19
2023-03-28T01:14:49.281Z,99514.53
2023-03-28T01:17:54.257Z,99499.06
2023-03-28T01:21:06.672Z,99528.44
2023-03-28T01:24:12.815Z,99513.81
2023-03-28T01:27:41.396Z,99513.00
2023-03-28T01:31:20.880Z,99512.13
2023-03-28T01:35:19.746Z,99543.25
2023-03-28T01:38:38.742Z,99553.69
2023-03-28T01:42:03.720Z,99537.34
2023-03-28T01:45:12.178Z,99558.94
2023-03-28T01:48:55.516Z,99559.81
2023-03-28T01:52:07.999Z,99566.78
2023-03-28T01:55:28.270Z,99561.63
2023-03-28T01:58:44.211Z,99554.78
2023-03-28T02:02:02.262Z,99569.50
2023-03-28T02:05:09.542Z,99581.56
2023-03-28T02:08:14.456Z,99586.75
2023-03-28T02:11:20.910Z,99569.50
2023-03-28T02:14:38.970Z,99597.16
2023-03-28T02:18:15.129Z,99579.06
2023-03-28T02:21:40.577Z,99599.78
2023-03-28T02:25:02.939Z,99604.16
2023-03-28T02:28:26.171Z,99605.91
2023-03-28T02:36:57.805Z,99619.75
2023-03-28T02:40:08.167Z,99627.50
2023-03-28T02:43:29.284Z,99624.00
2023-03-28T02:46:37.520Z,99640.47
2023-03-28T02:49:50.512Z,99632.63
2023-03-28T02:53:06.000Z,99637.81
2023-03-28T02:56:08.171Z,99638.72
2023-03-28T02:59:53.535Z,99636.13
2023-03-28T03:02:56.120Z,99648.22
2023-03-28T03:06:19.446Z,99658.69
2023-03-28T03:09:23.570Z,99664.75
2023-03-28T03:12:26.218Z,99664.75
2023-03-28T03:15:32.392Z,99670.84
2023-03-28T03:18:41.649Z,99680.41
2023-03-28T03:21:44.317Z,99680.41
2023-03-28T03:24:46.529Z,99676.13
2023-03-28T03:27:49.202Z,99686.50
2023-03-28T03:30:54.525Z,99683.06
2023-03-28T03:34:24.853Z,99691.75
2023-03-28T03:37:31.069Z,99685.69
2023-03-28T03:40:33.244Z,99698.66
2023-03-28T03:43:36.594Z,99714.22
2023-03-28T03:46:39.290Z,99715.97
2023-03-28T03:49:42.053Z,99722.03
2023-03-28T03:52:44.239Z,99713.38
2023-03-28T03:55:46.916Z,99731.56
2023-03-28T03:58:49.120Z,99735.84
2023-03-28T04:01:51.552Z,99741.91
2023-03-28T04:04:59.883Z,99747.06
2023-03-28T04:08:14.935Z,99751.41
2023-03-28T04:11:17.488Z,99763.50
2023-03-28T04:14:19.266Z,99768.72
2023-03-28T04:17:23.826Z,99771.28
2023-03-28T04:20:30.278Z,99786.00
2023-03-28T04:23:43.889Z,99786.00
2023-03-28T04:27:03.976Z,99798.97
2023-03-28T04:30:07.218Z,99802.41
2023-03-28T04:33:30.821Z,99814.53
2023-03-28T04:36:33.067Z,99819.72
2023-03-28T04:39:42.234Z,99822.31
2023-03-28T04:43:05.354Z,99835.31
2023-03-28T04:46:10.325Z,99838.75
2023-03-28T04:49:13.038Z,99842.22
2023-03-28T04:52:16.010Z,99842.25
2023-03-28T04:55:20.485Z,99848.31
2023-03-28T04:58:24.518Z,99855.28
2023-03-28T05:01:27.498Z,99852.69
2023-03-28T05:04:49.530Z,99854.41
2023-03-28T05:07:52.578Z,99868.28
2023-03-28T05:10:55.988Z,99862.22
2023-03-28T05:13:59.155Z,99875.25
2023-03-28T05:17:06.986Z,99883.06
2023-03-28T05:20:41.512Z,99890.84
2023-03-28T05:23:44.127Z,99888.28
2023-03-28T05:26:55.978Z,99888.25
2023-03-28T05:30:00.011Z,99901.25
2023-03-28T05:33:03.337Z,99895.19
2023-03-28T05:36:06.127Z,99890.00
2023-03-28T05:39:09.081Z,99900.41
2023-03-28T05:42:11.328Z,99901.25
2023-03-28T05:45:16.178Z,99910.78
2023-03-28T05:48:24.237Z,99909.94
2023-03-28T05:51:26.905Z,99912.53
2023-03-28T05:54:29.575Z,99919.44
2023-03-28T05:57:31.749Z,99920.34
2023-03-28T06:00:35.192Z,99921.75
2023-03-28T06:03:40.191Z,99915.13
2023-03-28T06:06:42.226Z,99919.38
2023-03-28T06:09:44.429Z,99923.88
2023-03-28T06:12:46.612Z,99932.25
2023-03-28T06:15:48.742Z,99930.84
2023-03-28T06:18:52.669Z,99929.28
2023-03-28T06:22:12.448Z,99939.16
2023-03-28T06:25:15.883Z,99942.59
2023-03-28T06:28:18.596Z,99952.97
2023-03-28T06:31:50.843Z,99952.06
2023-03-28T06:34:54.254Z,99948.28
2023-03-28T06:37:59.674Z,99961.84
2023-03-28T06:41:02.647Z,99966.38
2023-03-28T06:44:06.084Z,99967.97
2023-03-28T06:48:36.963Z,99972.47
2023-03-28T06:51:57.473Z,99963.38
2023-03-28T06:54:59.158Z,99967.28
2023-03-28T06:58:14.090Z,99982.69
2023-03-28T07:01:28.071Z,99996.53
2023-03-28T07:04:45.442Z,99992.22
2023-03-28T07:07:48.671Z,99989.94
2023-03-28T07:10:51.551Z,99995.34
2023-03-28T07:13:53.947Z,100000.16
2023-03-28T07:16:59.372Z,100001.41
2023-03-28T07:20:02.074Z,100000.75
2023-03-28T07:23:04.974Z,100013.91
2023-03-28T07:26:08.537Z,100008.84
2023-03-28T07:29:11.541Z,100004.34
2023-03-28T07:32:14.691Z,100011.22
2023-03-28T07:35:20.172Z,100011.06
2023-03-28T07:38:25.106Z,100005.66
2023-03-28T07:41:31.065Z,99997.53
2023-03-28T07:44:33.976Z,100017.94
2023-03-28T07:47:37.004Z,100026.91
2023-03-28T07:50:39.754Z,100034.28
2023-03-28T07:53:43.303Z,100004.63
2023-03-28T07:56:48.896Z,100041.84
2023-03-28T08:00:21.294Z,100027.81
2023-03-28T08:03:45.342Z,100024.75
2023-03-28T08:06:48.427Z,100026.16
2023-03-28T08:09:53.509Z,100020.53
2023-03-28T08:13:00.696Z,100019.25
2023-03-28T08:16:03.213Z,100023.50
2023-03-28T08:19:11.457Z,100028.03
2023-03-28T08:22:33.180Z,100009.00
2023-03-28T08:25:49.833Z,100025.94
2023-03-28T08:28:58.850Z,100028.78
2023-03-28T08:32:04.664Z,100026.38
2023-03-28T08:35:07.653Z,100027.91
2023-03-28T08:38:11.380Z,100027.88
2023-03-28T08:41:20.347Z,100026.06
2023-03-28T08:44:41.678Z,100026.91
2023-03-28T08:47:54.266Z,100027.00
2023-03-28T08:51:03.018Z,100029.66
2023-03-28T08:54:12.275Z,100035.81
2023-03-28T08:57:28.165Z,100046.84
2023-03-28T09:00:34.337Z,100031.16
2023-03-28T09:03:37.465Z,100024.38
2023-03-28T09:06:45.905Z,100032.84
2023-03-28T09:09:51.530Z,100033.66
2023-03-28T09:13:14.496Z,100029.59
2023-03-28T09:16:19.231Z,100034.59
2023-03-28T09:19:47.269Z,100037.69
2023-03-28T09:23:17.714Z,100036.97
2023-03-28T09:26:42.433Z,100040.31
2023-03-28T09:29:52.857Z,100040.03
2023-03-28T09:32:58.850Z,100026.13
2023-03-28T09:36:02.175Z,100039.38
2023-03-28T09:39:08.321Z,100038.94
2023-03-28T09:45:30.706Z,100025.75
2023-03-28T09:48:56.500Z,100026.94
2023-03-28T09:52:12.447Z,100018.50
2023-03-28T09:55:22.006Z,100054.84
2023-03-28T09:58:26.198Z,100050.28
2023-03-28T10:01:59.293Z,100062.06
2023-03-28T10:05:46.683Z,99982.91
2023-03-28T10:09:24.617Z,99950.97
2023-03-28T10:12:36.354Z,100012.44
2023-03-28T10:15:48.812Z,100090.53
2023-03-28T10:19:14.278Z,100033.41
2023-03-28T10:22:35.937Z,99995.97
2023-03-28T10:25:45.093Z,100058.41
2023-03-28T10:28:51.050Z,100094.59
2023-03-28T10:31:54.058Z,100095.75
2023-03-28T10:35:27.029Z,100058.81
2023-03-28T10:38:49.262Z,100090.53
2023-03-28T10:42:15.464Z,100039.22
2023-03-28T10:45:41.011Z,100117.78
2023-03-28T10:48:54.083Z,100126.88
2023-03-28T10:51:57.334Z,100073.00
2023-03-28T10:55:16.453Z,100010.09
2023-03-28T10:58:40.140Z,100051.63
2023-03-28T11:02:25.176Z,100070.59
2023-03-28T11:05:55.004Z,100021.28
2023-03-28T11:09:28.932Z,100060.09
2023-03-28T11:13:34.717Z,100079.06
2023-03-28T11:17:06.727Z,100039.19
2023-03-28T11:20:51.009Z,100076.06
2023-03-28T11:24:06.843Z,100048.09
2023-03-28T11:27:19.553Z,99918.06
2023-03-28T11:30:43.042Z,99976.75
2023-03-28T11:34:24.423Z,100063.41
2023-03-28T11:37:57.684Z,100002.81
2023-03-28T11:41:14.090Z,100018.25
2023-03-28T11:44:41.887Z,100050.41
2023-03-28T11:47:55.636Z,99967.63
2023-03-28T11:51:05.417Z,100042.63
2023-03-28T11:55:15.291Z,99946.78
2023-03-28T11:58:24.915Z,99980.44
2023-03-28T12:01:34.699Z,100057.97
2023-03-28T12:04:54.610Z,100022.94
2023-03-28T12:08:27.877Z,100046.50
2023-03-28T12:11:36.838Z,100036.91
2023-03-28T12:15:01.071Z,100028.38
2023-03-28T12:18:43.099Z,100040.84
2023-03-28T12:22:02.970Z,100031.44
2023-03-28T12:25:38.826Z,100105.88
2023-03-28T12:28:52.788Z,100127.56
2023-03-28T12:32:07.390Z,100108.16
2023-03-28T12:35:38.692Z,100034.00
2023-03-28T12:38:59.604Z,100100.13
2023-03-28T12:42:12.491Z,100114.97
2023-03-28T12:45:27.961Z,100068.81
2023-03-28T12:48:47.062Z,100096.22
2023-03-28T12:52:03.937Z,100084.25
2023-03-28T12:55:38.985Z,100081.00
2023-03-28T12:58:46.814Z,100031.63
2023-03-28T13:01:57.804Z,100072.16
2023-03-28T13:05:20.182Z,100067.00
2023-03-28T13:08:38.547Z,100095.38
2023-03-28T13:12:06.644Z,100132.56
2023-03-28T13:15:44.031Z,100108.44
2023-03-28T13:18:49.695Z,100142.28
2023-03-28T13:21:58.895Z,100127.78
2023-03-28T13:25:22.888Z,100155.31
2023-03-28T13:28:33.432Z,100158.63
2023-03-28T13:31:44.798Z,100058.13
2023-03-28T13:34:56.790Z,100149.78
2023-03-28T13:38:24.869Z,100158.44
2023-03-28T13:41:37.327Z,100147.50
2023-03-28T13:44:50.962Z,100108.19
2023-03-28T13:48:06.108Z,100062.25
2023-03-28T13:51:23.050Z,100097.94
2023-03-28T13:54:28.894Z,100093.59
2023-03-28T13:57:31.764Z,100152.91
2023-03-28T14:00:34.776Z,100180.03
2023-03-28T14:03:38.575Z,100165.44
2023-03-28T14:06:43.214Z,100171.72
2023-03-28T14:09:46.345Z,100183.09
2023-03-28T14:12:52.482Z,100111.19
2023-03-28T14:15:56.576Z,100204.75
2023-03-28T14:19:02.122Z,100211.69
2023-03-28T14:22:07.278Z,100176.94
2023-03-28T14:25:16.345Z,100141.38
2023-03-28T14:28:28.523Z,100147.22
2023-03-28T14:31:34.911Z,100086.56
2023-03-28T14:34:38.985Z,100200.25
2023-03-28T14:37:47.784Z,100157.22
2023-03-28T14:40:50.879Z,100237.25
2023-03-28T14:43:58.698Z,100169.56
2023-03-28T14:47:33.515Z,100243.25
2023-03-28T14:50:38.624Z,100124.53
2023-03-28T14:53:47.620Z,100208.63
2023-03-28T14:56:50.754Z,100242.47
2023-03-28T14:59:58.539Z,100171.41
2023-03-28T15:03:24.673Z,100104.41
2023-03-28T15:06:29.783Z,100161.50
2023-03-28T15:09:34.181Z,100200.41
2023-03-28T15:12:44.198Z,100151.06
2023-03-28T15:15:48.113Z,100260.28
2023-03-28T15:19:19.727Z,100235.22
2023-03-28T15:22:26.892Z,100238.84
2023-03-28T15:25:31.405Z,100273.72
2023-03-28T15:28:44.866Z,100218.28
2023-03-28T15:31:59.984Z,100260.03
2023-03-28T15:35:22.635Z,100198.41
2023-03-28T15:38:29.469Z,100179.25
2023-03-28T15:41:49.406Z,100288.50
2023-03-28T15:44:58.393Z,100281.53
2023-03-28T15:48:01.098Z,100296.38
2023-03-28T15:51:15.169Z,100298.19
2023-03-28T15:54:30.368Z,100208.84
2023-03-28T15:57:36.600Z,100301.69
2023-03-28T16:00:50.932Z,100205.44
2023-03-28T16:04:19.019Z,100174.25
2023-03-28T16:07:22.100Z,100325.28
2023-03-28T16:10:25.822Z,100324.47
2023-03-28T16:13:52.723Z,100278.50
2023-03-28T16:17:31.206Z,100255.09
2023-03-28T16:20:45.552Z,100341.94
2023-03-28T16:23:54.097Z,100226.47
2023-03-28T16:27:00.086Z,100274.25
2023-03-28T16:30:02.015Z,100271.63
2023-03-28T16:33:06.571Z,100327.19
2023-03-28T16:36:11.698Z,100255.91
2023-03-28T16:39:14.568Z,100331.50
2023-03-28T16:42:16.872Z,100328.88
2023-03-28T16:45:20.606Z,100360.16
2023-03-28T16:48:22.913Z,100315.75
2023-03-28T16:51:25.176Z,100297.50
2023-03-28T16:54:28.072Z,100367.00
2023-03-28T16:57:33.047Z,100293.94
2023-03-28T17:00:36.896Z,100287.72
2023-03-28T17:03:39.503Z,100349.50
2023-03-28T17:06:41.907Z,100336.38
2023-03-28T17:09:43.896Z,100383.31
2023-03-28T17:12:46.457Z,100376.31
2023-03-28T17:15:48.764Z,100345.84
2023-03-28T17:18:51.648Z,100409.41
2023-03-28T17:21:54.751Z,100445.97
2023-03-28T17:24:57.751Z,100448.63
2023-03-28T17:28:01.336Z,100385.97
2023-03-28T17:31:08.933Z,100417.22
2023-03-28T17:34:13.272Z,100468.53
2023-03-28T17:37:16.717Z,100428.47
2023-03-28T17:40:22.390Z,100440.53
2023-03-28T17:43:24.760Z,100462.25
2023-03-28T17:46:28.020Z,100490.00
2023-03-28T17:49:30.842Z,100492.50
2023-03-28T17:52:33.143Z,100489.72
2023-03-28T17:55:35.971Z,100513.88
2023-03-28T17:58:38.394Z,100523.22
2023-03-28T18:01:41.598Z,100523.06
2023-03-28T18:04:43.960Z,100527.22
2023-03-28T18:07:57.856Z,100487.09
2023-03-28T18:11:08.431Z,100539.16
2023-03-28T18:14:11.293Z,100535.56
2023-03-28T18:17:14.327Z,100515.34
2023-03-28T18:20:17.334Z,100523.13
2023-03-28T18:23:20.756Z,100464.66
2023-03-28T18:26:24.045Z,100448.94
2023-03-28T18:29:26.807Z,100529.28
2023-03-28T18:32:29.238Z,100513.50
2023-03-28T18:35:33.142Z,100522.03
2023-03-28T18:38:42.227Z,100578.59
2023-03-28T18:41:45.477Z,100528.88
2023-03-28T18:44:48.752Z,100588.16
2023-03-28T18:47:52.315Z,100537.44
2023-03-28T18:50:56.205Z,100553.66
2023-03-28T18:53:59.205Z,100586.63
2023-03-28T18:57:02.273Z,100574.19
2023-03-28T19:00:20.634Z,100555.53
2023-03-28T19:03:25.651Z,100618.31
2023-03-28T19:06:28.702Z,100521.31
2023-03-28T19:09:31.603Z,100586.88
2023-03-28T19:12:38.148Z,100598.38
2023-03-28T19:15:40.556Z,100566.97
2023-03-28T19:18:45.186Z,100604.44
2023-03-28T19:21:47.491Z,100591.34
2023-03-28T19:24:50.368Z,100525.16
2023-03-28T19:27:52.783Z,100582.78
2023-03-28T19:31:01.923Z,100544.41
2023-03-28T19:34:04.021Z,100622.03
2023-03-28T19:37:07.066Z,100619.41
2023-03-28T19:40:10.338Z,100621.22
2023-03-28T19:43:13.611Z,100598.50
2023-03-28T19:46:22.916Z,100627.28
2023-03-28T19:49:27.970Z,100607.13
2023-03-28T19:52:32.807Z,100594.06
2023-03-28T19:55:35.043Z,100573.88
2023-03-28T19:58:37.526Z,100638.38
2023-03-28T20:01:40.512Z,100558.94
2023-03-28T20:04:42.941Z,100613.88
2023-03-28T20:07:44.919Z,100615.66
2023-03-28T20:10:50.137Z,100634.84
2023-03-28T20:13:52.075Z,100638.38
2023-03-28T20:16:54.433Z,100617.28
2023-03-28T20:19:56.223Z,100612.69
2023-03-28T20:23:00.572Z,100649.44
2023-03-28T20:26:16.718Z,100654.59
2023-03-28T20:29:20.536Z,100596.69
2023-03-28T20:32:25.268Z,100582.66
2023-03-28T20:35:28.464Z,100565.22
2023-03-28T20:38:31.035Z,100579.03
2023-03-28T20:41:32.992Z,100660.25
2023-03-28T20:44:38.114Z,100642.59
2023-03-28T20:47:50.649Z,100636.34
2023-03-28T20:50:56.488Z,100586.34
2023-03-28T20:54:01.296Z,100678.06
2023-03-28T20:57:03.773Z,100680.59
2023-03-28T21:00:08.739Z,100620.06
2023-03-28T21:03:12.355Z,100646.31
2023-03-28T21:06:17.846Z,100605.06
2023-03-28T21:09:21.187Z,100666.91
2023-03-28T21:12:26.703Z,100669.44
2023-03-28T21:15:29.797Z,100615.16
2023-03-28T21:18:34.315Z,100619.38
2023-03-28T21:21:36.793Z,100680.41
2023-03-28T21:24:39.611Z,100641.97
2023-03-28T21:27:44.296Z,100657.97
2023-03-28T21:30:57.527Z,100605.22
2023-03-28T21:34:01.356Z,100673.28
2023-03-28T21:37:04.992Z,100706.41
2023-03-28T21:40:09.195Z,100719.50
2023-03-28T21:43:12.534Z,100675.63
2023-03-28T21:46:18.957Z,100642.38
2023-03-28T21:49:22.064Z,100665.78
2023-03-28T21:52:24.493Z,100719.94
2023-03-28T21:55:27.096Z,100633.22
2023-03-28T21:58:33.191Z,100685.75
2023-03-28T22:01:36.277Z,100720.59
2023-03-28T22:04:45.249Z,100663.69
2023-03-28T22:07:55.774Z,100747.63
2023-03-28T22:11:03.711Z,100617.19
2023-03-28T22:14:08.438Z,100635.34
2023-03-28T22:17:10.881Z,100609.25
2023-03-28T22:20:15.051Z,100707.84
2023-03-28T22:23:18.029Z,100732.34
2023-03-28T22:26:21.712Z,100715.75
2023-03-28T22:29:24.028Z,100740.19
2023-03-28T22:32:27.916Z,100753.13
2023-03-28T22:35:31.484Z,100698.91
2023-03-28T22:38:34.373Z,100722.41
2023-03-28T22:41:37.275Z,100717.97
2023-03-28T22:44:40.228Z,100729.31
2023-03-28T22:47:43.822Z,100770.25
2023-03-28T22:50:46.346Z,100770.22
2023-03-28T22:53:49.227Z,100787.63
2023-03-28T22:56:51.932Z,100703.53
2023-03-28T22:59:56.854Z,100785.78
2023-03-28T23:03:02.314Z,100773.25
2023-03-28T23:06:06.788Z,100796.16
2023-03-28T23:09:09.873Z,100728.63
2023-03-28T23:12:13.342Z,100740.91
2023-03-28T23:15:16.523Z,100794.91
2023-03-28T23:18:19.791Z,100714.22
2023-03-28T23:21:22.201Z,100767.72
2023-03-28T23:24:26.792Z,100761.28
2023-03-28T23:27:34.624Z,100773.75
2023-03-28T23:30:38.887Z,100694.00
2023-03-28T23:33:41.531Z,100801.69
2023-03-28T23:36:52.374Z,100743.06
2023-03-28T23:39:55.958Z,100716.84
2023-03-28T23:42:58.049Z,100754.25
2023-03-28T23:46:04.909Z,100718.34
2023-03-28T23:49:07.442Z,100737.41
2023-03-28T23:52:13.587Z,100739.13
2023-03-28T23:55:19.052Z,100754.78
2023-03-28T23:58:23.138Z,100831.75
